sensor_id;sensor_type;location;lat;lon;timestamp;P1;durP1;ratioP1;P2;durP2;ratioP2
15624;SDS011;7912;51.376;6.126;2023-06-14T00:02:01;7.43;;;6.73;;
15624;SDS011;7912;51.376;6.126;2023-06-14T00:04:30;8.07;;;7.27;;
15624;SDS011;7912;51.376;6.126;2023-06-14T00:06:57;6.83;;;6.13;;
15624;SDS011;7912;51.376;6.126;2023-06-14T00:09:25;7.73;;;6.87;;
15624;SDS011;7912;51.376;6.126;2023-06-14T00:11:52;7.37;;;6.67;;
15624;SDS011;7912;51.376;6.126;2023-06-14T00:14:19;8.33;;;7.40;;
15624;SDS011;7912;51.376;6.126;2023-06-14T00:16:46;7.50;;;6.70;;
15624;SDS011;7912;51.376;6.126;2023-06-14T00:19:14;7.67;;;6.90;;
15624;SDS011;7912;51.376;6.126;2023-06-14T00:21:42;7.10;;;6.50;;
15624;SDS011;7912;51.376;6.126;2023-06-14T00:24:10;8.07;;;7.37;;
15624;SDS011;7912;51.376;6.126;2023-06-14T00:26:37;7.73;;;6.97;;
15624;SDS011;7912;51.376;6.126;2023-06-14T00:29:05;7.07;;;6.37;;
15624;SDS011;7912;51.376;6.126;2023-06-14T00:31:32;7.53;;;6.73;;
15624;SDS011;7912;51.376;6.126;2023-06-14T00:33:59;7.07;;;6.47;;
15624;SDS011;7912;51.376;6.126;2023-06-14T00:36:26;6.87;;;6.27;;
15624;SDS011;7912;51.376;6.126;2023-06-14T00:38:55;8.10;;;7.23;;
15624;SDS011;7912;51.376;6.126;2023-06-14T00:41:22;7.60;;;6.90;;
15624;SDS011;7912;51.376;6.126;2023-06-14T00:43:51;7.30;;;6.70;;
15624;SDS011;7912;51.376;6.126;2023-06-14T00:46:19;6.80;;;6.27;;
15624;SDS011;7912;51.376;6.126;2023-06-14T00:48:48;7.67;;;6.90;;
15624;SDS011;7912;51.376;6.126;2023-06-14T00:51:16;8.23;;;7.30;;
15624;SDS011;7912;51.376;6.126;2023-06-14T00:53:44;7.10;;;6.40;;
15624;SDS011;7912;51.376;6.126;2023-06-14T00:56:13;8.47;;;6.70;;
15624;SDS011;7912;51.376;6.126;2023-06-14T00:58:41;7.27;;;6.57;;
15624;SDS011;7912;51.376;6.126;2023-06-14T01:01:09;7.33;;;6.60;;
15624;SDS011;7912;51.376;6.126;2023-06-14T01:03:37;7.50;;;6.80;;
15624;SDS011;7912;51.376;6.126;2023-06-14T01:12:00;8.67;;;6.77;;
15624;SDS011;7912;51.376;6.126;2023-06-14T01:15:21;7.10;;;6.40;;
15624;SDS011;7912;51.376;6.126;2023-06-14T01:17:51;7.30;;;6.63;;
15624;SDS011;7912;51.376;6.126;2023-06-14T01:20:21;8.67;;;6.90;;
15624;SDS011;7912;51.376;6.126;2023-06-14T01:22:55;7.73;;;6.97;;
15624;SDS011;7912;51.376;6.126;2023-06-14T01:25:23;7.77;;;6.90;;
15624;SDS011;7912;51.376;6.126;2023-06-14T01:30:38;7.53;;;6.70;;
15624;SDS011;7912;51.376;6.126;2023-06-14T01:33:18;8.00;;;6.50;;
15624;SDS011;7912;51.376;6.126;2023-06-14T01:35:50;7.87;;;6.60;;
15624;SDS011;7912;51.376;6.126;2023-06-14T01:38:21;7.93;;;6.23;;
15624;SDS011;7912;51.376;6.126;2023-06-14T01:40:54;6.83;;;6.30;;
15624;SDS011;7912;51.376;6.126;2023-06-14T01:43:24;7.47;;;6.73;;
15624;SDS011;7912;51.376;6.126;2023-06-14T01:49:17;9.33;;;6.67;;
15624;SDS011;7912;51.376;6.126;2023-06-14T01:51:44;8.57;;;6.47;;
15624;SDS011;7912;51.376;6.126;2023-06-14T01:54:12;11.50;;;6.30;;
15624;SDS011;7912;51.376;6.126;2023-06-14T01:56:39;6.80;;;6.20;;
15624;SDS011;7912;51.376;6.126;2023-06-14T01:59:06;7.27;;;6.57;;
15624;SDS011;7912;51.376;6.126;2023-06-14T02:01:34;6.97;;;6.20;;
15624;SDS011;7912;51.376;6.126;2023-06-14T02:04:03;7.50;;;6.77;;
15624;SDS011;7912;51.376;6.126;2023-06-14T02:06:30;6.57;;;5.90;;
15624;SDS011;7912;51.376;6.126;2023-06-14T02:08:57;7.00;;;6.40;;
15624;SDS011;7912;51.376;6.126;2023-06-14T02:11:25;7.23;;;6.60;;
15624;SDS011;7912;51.376;6.126;2023-06-14T02:13:53;8.20;;;6.70;;
15624;SDS011;7912;51.376;6.126;2023-06-14T02:16:21;8.37;;;6.80;;
15624;SDS011;7912;51.376;6.126;2023-06-14T02:18:48;7.03;;;6.30;;
15624;SDS011;7912;51.376;6.126;2023-06-14T02:21:18;6.70;;;6.10;;
15624;SDS011;7912;51.376;6.126;2023-06-14T02:23:46;7.47;;;6.77;;
15624;SDS011;7912;51.376;6.126;2023-06-14T02:26:13;6.83;;;5.97;;
15624;SDS011;7912;51.376;6.126;2023-06-14T02:28:40;6.90;;;6.20;;
15624;SDS011;7912;51.376;6.126;2023-06-14T02:31:07;7.43;;;6.73;;
15624;SDS011;7912;51.376;6.126;2023-06-14T02:33:35;6.77;;;6.17;;
15624;SDS011;7912;51.376;6.126;2023-06-14T02:36:02;7.10;;;6.10;;
15624;SDS011;7912;51.376;6.126;2023-06-14T02:38:30;8.13;;;6.33;;
15624;SDS011;7912;51.376;6.126;2023-06-14T02:40:57;7.23;;;6.53;;
15624;SDS011;7912;51.376;6.126;2023-06-14T02:43:25;8.10;;;6.67;;
15624;SDS011;7912;51.376;6.126;2023-06-14T02:45:52;7.10;;;6.30;;
15624;SDS011;7912;51.376;6.126;2023-06-14T02:48:20;8.40;;;6.33;;
15624;SDS011;7912;51.376;6.126;2023-06-14T02:50:47;7.00;;;6.30;;
15624;SDS011;7912;51.376;6.126;2023-06-14T02:53:14;6.80;;;6.20;;
15624;SDS011;7912;51.376;6.126;2023-06-14T02:55:42;10.10;;;6.50;;
15624;SDS011;7912;51.376;6.126;2023-06-14T02:58:10;7.20;;;6.00;;
15624;SDS011;7912;51.376;6.126;2023-06-14T03:00:37;6.73;;;6.13;;
15624;SDS011;7912;51.376;6.126;2023-06-14T03:03:07;7.30;;;5.83;;
15624;SDS011;7912;51.376;6.126;2023-06-14T03:05:44;6.40;;;5.87;;
15624;SDS011;7912;51.376;6.126;2023-06-14T03:08:14;7.07;;;6.27;;
15624;SDS011;7912;51.376;6.126;2023-06-14T03:10:46;6.47;;;5.87;;
15624;SDS011;7912;51.376;6.126;2023-06-14T03:13:14;8.67;;;6.03;;
15624;SDS011;7912;51.376;6.126;2023-06-14T03:15:42;6.90;;;6.20;;
15624;SDS011;7912;51.376;6.126;2023-06-14T03:18:11;6.73;;;6.03;;
15624;SDS011;7912;51.376;6.126;2023-06-14T03:20:38;7.40;;;6.30;;
15624;SDS011;7912;51.376;6.126;2023-06-14T03:23:07;7.30;;;6.60;;
15624;SDS011;7912;51.376;6.126;2023-06-14T03:25:35;8.57;;;6.30;;
15624;SDS011;7912;51.376;6.126;2023-06-14T03:28:04;7.57;;;6.87;;
15624;SDS011;7912;51.376;6.126;2023-06-14T03:30:32;9.67;;;5.83;;
15624;SDS011;7912;51.376;6.126;2023-06-14T03:32:59;7.97;;;5.77;;
15624;SDS011;7912;51.376;6.126;2023-06-14T03:35:31;6.70;;;6.10;;
15624;SDS011;7912;51.376;6.126;2023-06-14T03:37:58;7.50;;;6.00;;
15624;SDS011;7912;51.376;6.126;2023-06-14T03:40:25;6.93;;;6.23;;
15624;SDS011;7912;51.376;6.126;2023-06-14T03:42:54;7.13;;;6.00;;
15624;SDS011;7912;51.376;6.126;2023-06-14T03:45:21;6.40;;;5.80;;
15624;SDS011;7912;51.376;6.126;2023-06-14T03:47:49;6.97;;;5.73;;
15624;SDS011;7912;51.376;6.126;2023-06-14T03:50:17;8.00;;;6.30;;
15624;SDS011;7912;51.376;6.126;2023-06-14T03:52:46;6.40;;;5.80;;
15624;SDS011;7912;51.376;6.126;2023-06-14T03:55:15;6.27;;;5.63;;
15624;SDS011;7912;51.376;6.126;2023-06-14T03:57:45;6.90;;;6.00;;
15624;SDS011;7912;51.376;6.126;2023-06-14T04:00:13;8.00;;;6.43;;
15624;SDS011;7912;51.376;6.126;2023-06-14T04:02:41;7.43;;;6.07;;
15624;SDS011;7912;51.376;6.126;2023-06-14T04:05:10;8.37;;;5.77;;
15624;SDS011;7912;51.376;6.126;2023-06-14T04:07:38;6.70;;;5.40;;
15624;SDS011;7912;51.376;6.126;2023-06-14T04:10:11;6.20;;;5.60;;
15624;SDS011;7912;51.376;6.126;2023-06-14T04:12:40;6.60;;;5.83;;
15624;SDS011;7912;51.376;6.126;2023-06-14T04:15:09;9.80;;;5.90;;
15624;SDS011;7912;51.376;6.126;2023-06-14T04:24:54;6.13;;;5.60;;
15624;SDS011;7912;51.376;6.126;2023-06-14T04:27:30;5.73;;;5.23;;
15624;SDS011;7912;51.376;6.126;2023-06-14T04:30:02;6.27;;;5.50;;
15624;SDS011;7912;51.376;6.126;2023-06-14T04:32:30;6.70;;;5.77;;
15624;SDS011;7912;51.376;6.126;2023-06-14T04:35:00;8.37;;;5.77;;
15624;SDS011;7912;51.376;6.126;2023-06-14T04:37:31;6.03;;;5.47;;
15624;SDS011;7912;51.376;6.126;2023-06-14T04:39:59;6.33;;;5.50;;
15624;SDS011;7912;51.376;6.126;2023-06-14T04:42:27;5.97;;;5.30;;
15624;SDS011;7912;51.376;6.126;2023-06-14T04:44:57;6.30;;;5.70;;
15624;SDS011;7912;51.376;6.126;2023-06-14T04:50:48;6.37;;;5.13;;
15624;SDS011;7912;51.376;6.126;2023-06-14T04:53:20;6.10;;;5.37;;
15624;SDS011;7912;51.376;6.126;2023-06-14T04:55:49;5.83;;;5.33;;
15624;SDS011;7912;51.376;6.126;2023-06-14T04:58:16;6.53;;;5.53;;
15624;SDS011;7912;51.376;6.126;2023-06-14T05:00:44;6.17;;;5.13;;
15624;SDS011;7912;51.376;6.126;2023-06-14T05:03:11;5.30;;;4.80;;
15624;SDS011;7912;51.376;6.126;2023-06-14T05:05:40;7.13;;;5.50;;
15624;SDS011;7912;51.376;6.126;2023-06-14T05:08:07;6.60;;;5.20;;
15624;SDS011;7912;51.376;6.126;2023-06-14T05:10:35;8.13;;;5.27;;
15624;SDS011;7912;51.376;6.126;2023-06-14T05:13:03;7.33;;;5.50;;
15624;SDS011;7912;51.376;6.126;2023-06-14T05:15:30;5.67;;;5.10;;
15624;SDS011;7912;51.376;6.126;2023-06-14T05:17:58;8.77;;;5.30;;
15624;SDS011;7912;51.376;6.126;2023-06-14T05:20:26;7.67;;;5.30;;
15624;SDS011;7912;51.376;6.126;2023-06-14T05:22:53;7.73;;;5.20;;
15624;SDS011;7912;51.376;6.126;2023-06-14T05:25:20;7.70;;;5.10;;
15624;SDS011;7912;51.376;6.126;2023-06-14T05:27:48;6.73;;;5.23;;
15624;SDS011;7912;51.376;6.126;2023-06-14T05:30:15;10.47;;;5.37;;
15624;SDS011;7912;51.376;6.126;2023-06-14T05:32:43;6.53;;;5.30;;
15624;SDS011;7912;51.376;6.126;2023-06-14T05:35:11;7.13;;;4.97;;
15624;SDS011;7912;51.376;6.126;2023-06-14T05:37:39;9.33;;;5.37;;
15624;SDS011;7912;51.376;6.126;2023-06-14T05:40:06;7.30;;;5.30;;
15624;SDS011;7912;51.376;6.126;2023-06-14T05:42:35;6.00;;;5.27;;
15624;SDS011;7912;51.376;6.126;2023-06-14T05:45:02;6.40;;;5.03;;
15624;SDS011;7912;51.376;6.126;2023-06-14T05:47:30;7.30;;;5.27;;
15624;SDS011;7912;51.376;6.126;2023-06-14T05:49:58;7.30;;;4.90;;
15624;SDS011;7912;51.376;6.126;2023-06-14T05:52:25;5.00;;;4.50;;
15624;SDS011;7912;51.376;6.126;2023-06-14T05:54:52;5.13;;;4.63;;
15624;SDS011;7912;51.376;6.126;2023-06-14T05:57:20;5.57;;;4.80;;
15624;SDS011;7912;51.376;6.126;2023-06-14T05:59:47;5.27;;;4.67;;
15624;SDS011;7912;51.376;6.126;2023-06-14T06:02:15;8.03;;;4.73;;
15624;SDS011;7912;51.376;6.126;2023-06-14T06:04:42;6.93;;;4.97;;
15624;SDS011;7912;51.376;6.126;2023-06-14T06:07:10;9.43;;;4.93;;
15624;SDS011;7912;51.376;6.126;2023-06-14T06:09:37;5.17;;;4.60;;
15624;SDS011;7912;51.376;6.126;2023-06-14T06:12:06;6.47;;;4.67;;
15624;SDS011;7912;51.376;6.126;2023-06-14T06:14:33;7.23;;;4.60;;
15624;SDS011;7912;51.376;6.126;2023-06-14T06:17:01;7.03;;;4.50;;
15624;SDS011;7912;51.376;6.126;2023-06-14T06:19:28;5.40;;;4.30;;
15624;SDS011;7912;51.376;6.126;2023-06-14T06:21:56;8.57;;;4.90;;
15624;SDS011;7912;51.376;6.126;2023-06-14T06:24:23;4.93;;;4.10;;
15624;SDS011;7912;51.376;6.126;2023-06-14T06:27:06;6.60;;;4.70;;
15624;SDS011;7912;51.376;6.126;2023-06-14T06:29:34;5.33;;;4.13;;
15624;SDS011;7912;51.376;6.126;2023-06-14T06:32:02;6.30;;;4.47;;
15624;SDS011;7912;51.376;6.126;2023-06-14T06:34:32;5.17;;;4.33;;
15624;SDS011;7912;51.376;6.126;2023-06-14T06:41:00;5.10;;;4.40;;
15624;SDS011;7912;51.376;6.126;2023-06-14T06:43:27;5.67;;;4.20;;
15624;SDS011;7912;51.376;6.126;2023-06-14T06:45:55;5.37;;;3.97;;
15624;SDS011;7912;51.376;6.126;2023-06-14T06:48:23;4.77;;;4.27;;
15624;SDS011;7912;51.376;6.126;2023-06-14T06:50:51;4.90;;;4.17;;
15624;SDS011;7912;51.376;6.126;2023-06-14T06:58:00;8.70;;;4.00;;
15624;SDS011;7912;51.376;6.126;2023-06-14T07:00:27;5.77;;;4.07;;
15624;SDS011;7912;51.376;6.126;2023-06-14T07:02:55;6.13;;;3.73;;
15624;SDS011;7912;51.376;6.126;2023-06-14T07:05:23;5.40;;;3.93;;
15624;SDS011;7912;51.376;6.126;2023-06-14T07:07:51;7.83;;;4.03;;
15624;SDS011;7912;51.376;6.126;2023-06-14T07:10:21;3.83;;;3.47;;
15624;SDS011;7912;51.376;6.126;2023-06-14T07:12:48;4.47;;;3.70;;
15624;SDS011;7912;51.376;6.126;2023-06-14T07:15:17;6.33;;;3.90;;
15624;SDS011;7912;51.376;6.126;2023-06-14T07:17:44;4.00;;;3.60;;
15624;SDS011;7912;51.376;6.126;2023-06-14T07:20:13;7.53;;;3.70;;
15624;SDS011;7912;51.376;6.126;2023-06-14T07:22:41;3.97;;;3.57;;
15624;SDS011;7912;51.376;6.126;2023-06-14T07:25:10;4.57;;;3.50;;
15624;SDS011;7912;51.376;6.126;2023-06-14T07:27:42;7.53;;;3.90;;
15624;SDS011;7912;51.376;6.126;2023-06-14T07:32:58;6.73;;;3.87;;
15624;SDS011;7912;51.376;6.126;2023-06-14T07:35:26;4.10;;;3.30;;
15624;SDS011;7912;51.376;6.126;2023-06-14T07:37:53;3.80;;;3.40;;
15624;SDS011;7912;51.376;6.126;2023-06-14T07:40:20;4.53;;;3.30;;
15624;SDS011;7912;51.376;6.126;2023-06-14T07:42:48;5.30;;;3.30;;
15624;SDS011;7912;51.376;6.126;2023-06-14T07:45:17;5.10;;;3.27;;
15624;SDS011;7912;51.376;6.126;2023-06-14T07:47:45;4.43;;;3.10;;
15624;SDS011;7912;51.376;6.126;2023-06-14T07:50:13;4.77;;;2.90;;
15624;SDS011;7912;51.376;6.126;2023-06-14T07:52:40;3.17;;;2.87;;
15624;SDS011;7912;51.376;6.126;2023-06-14T07:55:08;3.93;;;2.70;;
15624;SDS011;7912;51.376;6.126;2023-06-14T07:57:35;7.60;;;2.80;;
15624;SDS011;7912;51.376;6.126;2023-06-14T08:00:03;2.57;;;2.33;;
15624;SDS011;7912;51.376;6.126;2023-06-14T08:02:34;2.60;;;2.40;;
15624;SDS011;7912;51.376;6.126;2023-06-14T08:05:04;3.90;;;2.80;;
15624;SDS011;7912;51.376;6.126;2023-06-14T08:07:32;2.47;;;2.27;;
15624;SDS011;7912;51.376;6.126;2023-06-14T08:09:59;2.50;;;2.27;;
15624;SDS011;7912;51.376;6.126;2023-06-14T08:12:27;3.20;;;2.47;;
15624;SDS011;7912;51.376;6.126;2023-06-14T08:14:54;2.67;;;2.47;;
15624;SDS011;7912;51.376;6.126;2023-06-14T08:17:39;2.60;;;2.10;;
15624;SDS011;7912;51.376;6.126;2023-06-14T08:20:06;2.80;;;2.07;;
15624;SDS011;7912;51.376;6.126;2023-06-14T08:22:35;3.13;;;2.03;;
15624;SDS011;7912;51.376;6.126;2023-06-14T08:25:03;2.30;;;1.90;;
15624;SDS011;7912;51.376;6.126;2023-06-14T08:27:32;2.93;;;2.10;;
15624;SDS011;7912;51.376;6.126;2023-06-14T08:29:59;2.07;;;1.87;;
15624;SDS011;7912;51.376;6.126;2023-06-14T08:32:27;2.67;;;1.83;;
15624;SDS011;7912;51.376;6.126;2023-06-14T08:34:57;2.83;;;1.87;;
15624;SDS011;7912;51.376;6.126;2023-06-14T08:37:31;2.80;;;2.00;;
15624;SDS011;7912;51.376;6.126;2023-06-14T08:40:00;1.60;;;1.50;;
15624;SDS011;7912;51.376;6.126;2023-06-14T08:42:30;3.40;;;1.80;;
15624;SDS011;7912;51.376;6.126;2023-06-14T08:45:00;2.73;;;1.70;;
15624;SDS011;7912;51.376;6.126;2023-06-14T08:50:25;2.23;;;1.90;;
15624;SDS011;7912;51.376;6.126;2023-06-14T08:52:58;2.07;;;1.87;;
15624;SDS011;7912;51.376;6.126;2023-06-14T08:55:29;2.30;;;1.90;;
15624;SDS011;7912;51.376;6.126;2023-06-14T08:58:03;2.50;;;2.20;;
15624;SDS011;7912;51.376;6.126;2023-06-14T09:00:31;1.77;;;1.67;;
15624;SDS011;7912;51.376;6.126;2023-06-14T09:03:02;3.80;;;1.87;;
15624;SDS011;7912;51.376;6.126;2023-06-14T09:05:30;2.30;;;2.10;;
15624;SDS011;7912;51.376;6.126;2023-06-14T09:07:57;2.73;;;2.03;;
15624;SDS011;7912;51.376;6.126;2023-06-14T09:10:32;4.50;;;1.87;;
15624;SDS011;7912;51.376;6.126;2023-06-14T09:13:04;2.00;;;1.80;;
15624;SDS011;7912;51.376;6.126;2023-06-14T09:15:33;3.43;;;2.20;;
15624;SDS011;7912;51.376;6.126;2023-06-14T09:18:02;2.40;;;2.20;;
15624;SDS011;7912;51.376;6.126;2023-06-14T09:20:31;2.40;;;2.20;;
15624;SDS011;7912;51.376;6.126;2023-06-14T09:22:59;6.00;;;2.10;;
15624;SDS011;7912;51.376;6.126;2023-06-14T09:25:32;3.43;;;1.97;;
15624;SDS011;7912;51.376;6.126;2023-06-14T09:28:09;2.93;;;2.20;;
15624;SDS011;7912;51.376;6.126;2023-06-14T09:30:37;2.07;;;1.97;;
15624;SDS011;7912;51.376;6.126;2023-06-14T09:33:05;4.13;;;2.10;;
15624;SDS011;7912;51.376;6.126;2023-06-14T09:35:32;3.63;;;2.33;;
15624;SDS011;7912;51.376;6.126;2023-06-14T09:38:00;2.20;;;1.90;;
15624;SDS011;7912;51.376;6.126;2023-06-14T09:40:27;3.83;;;2.13;;
15624;SDS011;7912;51.376;6.126;2023-06-14T09:42:55;2.80;;;2.10;;
15624;SDS011;7912;51.376;6.126;2023-06-14T09:45:25;3.57;;;1.90;;
15624;SDS011;7912;51.376;6.126;2023-06-14T09:47:56;2.30;;;2.10;;
15624;SDS011;7912;51.376;6.126;2023-06-14T09:50:27;2.27;;;2.00;;
15624;SDS011;7912;51.376;6.126;2023-06-14T09:52:56;2.53;;;2.23;;
15624;SDS011;7912;51.376;6.126;2023-06-14T09:55:30;2.23;;;1.87;;
15624;SDS011;7912;51.376;6.126;2023-06-14T09:58:06;2.50;;;1.90;;
15624;SDS011;7912;51.376;6.126;2023-06-14T10:00:36;2.20;;;2.00;;
15624;SDS011;7912;51.376;6.126;2023-06-14T10:07:05;2.60;;;1.97;;
15624;SDS011;7912;51.376;6.126;2023-06-14T10:09:34;3.20;;;2.50;;
15624;SDS011;7912;51.376;6.126;2023-06-14T10:12:02;4.47;;;2.10;;
15624;SDS011;7912;51.376;6.126;2023-06-14T10:14:30;3.10;;;2.20;;
15624;SDS011;7912;51.376;6.126;2023-06-14T10:17:11;2.30;;;2.07;;
15624;SDS011;7912;51.376;6.126;2023-06-14T10:19:51;2.00;;;1.80;;
15624;SDS011;7912;51.376;6.126;2023-06-14T10:22:34;2.17;;;1.93;;
15624;SDS011;7912;51.376;6.126;2023-06-14T10:25:27;2.97;;;2.13;;
15624;SDS011;7912;51.376;6.126;2023-06-14T10:28:30;2.70;;;2.30;;
15624;SDS011;7912;51.376;6.126;2023-06-14T10:31:03;3.03;;;2.40;;
15624;SDS011;7912;51.376;6.126;2023-06-14T10:33:56;2.47;;;1.83;;
15624;SDS011;7912;51.376;6.126;2023-06-14T10:36:30;3.83;;;2.00;;
15624;SDS011;7912;51.376;6.126;2023-06-14T10:41:52;3.50;;;1.97;;
15624;SDS011;7912;51.376;6.126;2023-06-14T10:46:49;2.43;;;1.90;;
15624;SDS011;7912;51.376;6.126;2023-06-14T10:49:19;2.43;;;2.00;;
15624;SDS011;7912;51.376;6.126;2023-06-14T10:52:15;4.37;;;2.20;;
15624;SDS011;7912;51.376;6.126;2023-06-14T10:57:30;2.20;;;2.00;;
15624;SDS011;7912;51.376;6.126;2023-06-14T11:00:14;5.50;;;2.00;;
15624;SDS011;7912;51.376;6.126;2023-06-14T11:10:55;3.27;;;2.30;;
15624;SDS011;7912;51.376;6.126;2023-06-14T11:13:26;2.10;;;1.90;;
15624;SDS011;7912;51.376;6.126;2023-06-14T11:15:57;3.27;;;1.90;;
15624;SDS011;7912;51.376;6.126;2023-06-14T11:18:25;2.17;;;1.90;;
15624;SDS011;7912;51.376;6.126;2023-06-14T11:20:54;2.77;;;1.80;;
15624;SDS011;7912;51.376;6.126;2023-06-14T11:23:21;2.53;;;2.07;;
15624;SDS011;7912;51.376;6.126;2023-06-14T11:25:52;2.10;;;2.00;;
15624;SDS011;7912;51.376;6.126;2023-06-14T11:28:19;2.30;;;2.10;;
15624;SDS011;7912;51.376;6.126;2023-06-14T11:30:48;3.57;;;1.90;;
15624;SDS011;7912;51.376;6.126;2023-06-14T11:33:26;2.43;;;1.60;;
15624;SDS011;7912;51.376;6.126;2023-06-14T11:35:54;1.90;;;1.70;;
15624;SDS011;7912;51.376;6.126;2023-06-14T11:38:21;1.83;;;1.73;;
15624;SDS011;7912;51.376;6.126;2023-06-14T11:40:49;2.53;;;1.80;;
15624;SDS011;7912;51.376;6.126;2023-06-14T11:43:16;1.90;;;1.80;;
15624;SDS011;7912;51.376;6.126;2023-06-14T11:45:47;2.53;;;1.87;;
15624;SDS011;7912;51.376;6.126;2023-06-14T11:48:40;1.83;;;1.73;;
15624;SDS011;7912;51.376;6.126;2023-06-14T11:51:09;2.27;;;1.50;;
15624;SDS011;7912;51.376;6.126;2023-06-14T11:53:37;2.20;;;1.57;;
15624;SDS011;7912;51.376;6.126;2023-06-14T11:56:05;1.63;;;1.40;;
15624;SDS011;7912;51.376;6.126;2023-06-14T11:58:33;2.63;;;1.67;;
15624;SDS011;7912;51.376;6.126;2023-06-14T12:01:02;2.53;;;1.53;;
15624;SDS011;7912;51.376;6.126;2023-06-14T12:03:30;6.07;;;1.60;;
15624;SDS011;7912;51.376;6.126;2023-06-14T12:06:01;2.63;;;1.47;;
15624;SDS011;7912;51.376;6.126;2023-06-14T12:08:37;3.23;;;1.50;;
15624;SDS011;7912;51.376;6.126;2023-06-14T12:11:10;2.57;;;1.80;;
15624;SDS011;7912;51.376;6.126;2023-06-14T12:13:41;2.30;;;1.63;;
15624;SDS011;7912;51.376;6.126;2023-06-14T12:16:11;2.70;;;1.70;;
15624;SDS011;7912;51.376;6.126;2023-06-14T12:18:39;2.43;;;1.73;;
15624;SDS011;7912;51.376;6.126;2023-06-14T12:21:13;1.97;;;1.80;;
15624;SDS011;7912;51.376;6.126;2023-06-14T12:26:18;1.50;;;1.40;;
15624;SDS011;7912;51.376;6.126;2023-06-14T12:28:46;2.77;;;1.47;;
15624;SDS011;7912;51.376;6.126;2023-06-14T12:31:15;1.60;;;1.50;;
15624;SDS011;7912;51.376;6.126;2023-06-14T12:33:43;2.13;;;1.60;;
15624;SDS011;7912;51.376;6.126;2023-06-14T12:36:13;2.77;;;1.50;;
15624;SDS011;7912;51.376;6.126;2023-06-14T12:41:47;1.87;;;1.27;;
15624;SDS011;7912;51.376;6.126;2023-06-14T12:44:15;2.33;;;1.70;;
15624;SDS011;7912;51.376;6.126;2023-06-14T12:46:42;3.77;;;1.53;;
15624;SDS011;7912;51.376;6.126;2023-06-14T12:49:11;1.40;;;1.30;;
15624;SDS011;7912;51.376;6.126;2023-06-14T12:51:39;2.77;;;1.50;;
15624;SDS011;7912;51.376;6.126;2023-06-14T12:54:07;2.23;;;1.40;;
15624;SDS011;7912;51.376;6.126;2023-06-14T12:56:34;3.50;;;1.77;;
15624;SDS011;7912;51.376;6.126;2023-06-14T12:59:02;2.50;;;1.43;;
15624;SDS011;7912;51.376;6.126;2023-06-14T13:01:29;3.73;;;1.57;;
15624;SDS011;7912;51.376;6.126;2023-06-14T13:03:57;2.70;;;1.40;;
15624;SDS011;7912;51.376;6.126;2023-06-14T13:06:24;3.73;;;1.57;;
15624;SDS011;7912;51.376;6.126;2023-06-14T13:08:51;2.47;;;1.70;;
15624;SDS011;7912;51.376;6.126;2023-06-14T13:11:21;2.20;;;1.63;;
15624;SDS011;7912;51.376;6.126;2023-06-14T13:13:48;3.43;;;1.60;;
15624;SDS011;7912;51.376;6.126;2023-06-14T13:16:15;1.87;;;1.40;;
15624;SDS011;7912;51.376;6.126;2023-06-14T13:18:43;3.00;;;1.50;;
15624;SDS011;7912;51.376;6.126;2023-06-14T13:21:11;3.40;;;1.50;;
15624;SDS011;7912;51.376;6.126;2023-06-14T13:23:38;2.60;;;1.53;;
15624;SDS011;7912;51.376;6.126;2023-06-14T13:26:06;4.20;;;1.80;;
15624;SDS011;7912;51.376;6.126;2023-06-14T13:28:33;2.63;;;1.40;;
15624;SDS011;7912;51.376;6.126;2023-06-14T13:31:01;3.70;;;1.67;;
15624;SDS011;7912;51.376;6.126;2023-06-14T13:33:29;1.53;;;1.43;;
15624;SDS011;7912;51.376;6.126;2023-06-14T13:35:56;1.73;;;1.43;;
15624;SDS011;7912;51.376;6.126;2023-06-14T13:38:26;2.53;;;1.60;;
15624;SDS011;7912;51.376;6.126;2023-06-14T13:40:53;2.93;;;1.60;;
15624;SDS011;7912;51.376;6.126;2023-06-14T13:43:21;2.60;;;1.77;;
15624;SDS011;7912;51.376;6.126;2023-06-14T13:45:49;2.93;;;1.40;;
15624;SDS011;7912;51.376;6.126;2023-06-14T13:48:16;2.73;;;1.40;;
15624;SDS011;7912;51.376;6.126;2023-06-14T13:50:44;3.07;;;1.50;;
15624;SDS011;7912;51.376;6.126;2023-06-14T13:53:12;2.10;;;1.50;;
15624;SDS011;7912;51.376;6.126;2023-06-14T13:55:40;2.37;;;1.67;;
15624;SDS011;7912;51.376;6.126;2023-06-14T13:58:08;1.70;;;1.60;;
15624;SDS011;7912;51.376;6.126;2023-06-14T14:00:35;1.60;;;1.50;;
15624;SDS011;7912;51.376;6.126;2023-06-14T14:03:06;3.13;;;1.33;;
15624;SDS011;7912;51.376;6.126;2023-06-14T14:05:35;2.53;;;1.60;;
15624;SDS011;7912;51.376;6.126;2023-06-14T14:08:03;2.40;;;1.80;;
15624;SDS011;7912;51.376;6.126;2023-06-14T14:10:30;2.67;;;1.70;;
15624;SDS011;7912;51.376;6.126;2023-06-14T14:12:58;5.40;;;1.80;;
15624;SDS011;7912;51.376;6.126;2023-06-14T14:15:27;3.40;;;1.50;;
15624;SDS011;7912;51.376;6.126;2023-06-14T14:17:55;1.57;;;1.47;;
15624;SDS011;7912;51.376;6.126;2023-06-14T14:20:24;1.70;;;1.60;;
15624;SDS011;7912;51.376;6.126;2023-06-14T14:22:52;2.20;;;1.50;;
15624;SDS011;7912;51.376;6.126;2023-06-14T14:25:19;2.10;;;1.40;;
15624;SDS011;7912;51.376;6.126;2023-06-14T14:27:47;2.50;;;1.80;;
15624;SDS011;7912;51.376;6.126;2023-06-14T14:30:14;2.00;;;1.80;;
15624;SDS011;7912;51.376;6.126;2023-06-14T14:32:44;2.03;;;1.83;;
15624;SDS011;7912;51.376;6.126;2023-06-14T14:35:11;2.37;;;1.70;;
15624;SDS011;7912;51.376;6.126;2023-06-14T14:37:39;1.92;;;1.80;;
15624;SDS011;7912;51.376;6.126;2023-06-14T14:40:07;1.70;;;1.60;;
15624;SDS011;7912;51.376;6.126;2023-06-14T14:42:36;2.10;;;1.90;;
15624;SDS011;7912;51.376;6.126;2023-06-14T14:45:04;2.67;;;1.90;;
15624;SDS011;7912;51.376;6.126;2023-06-14T14:47:33;2.27;;;2.10;;
15624;SDS011;7912;51.376;6.126;2023-06-14T14:50:01;2.77;;;1.93;;
15624;SDS011;7912;51.376;6.126;2023-06-14T14:52:29;2.13;;;2.03;;
15624;SDS011;7912;51.376;6.126;2023-06-14T14:54:56;2.20;;;2.00;;
15624;SDS011;7912;51.376;6.126;2023-06-14T14:57:24;2.20;;;2.00;;
15624;SDS011;7912;51.376;6.126;2023-06-14T14:59:51;2.83;;;2.27;;
15624;SDS011;7912;51.376;6.126;2023-06-14T15:02:19;3.20;;;2.30;;
15624;SDS011;7912;51.376;6.126;2023-06-14T15:04:47;2.97;;;2.10;;
15624;SDS011;7912;51.376;6.126;2023-06-14T15:07:15;2.30;;;2.10;;
15624;SDS011;7912;51.376;6.126;2023-06-14T15:12:34;3.40;;;2.00;;
15624;SDS011;7912;51.376;6.126;2023-06-14T15:15:03;3.63;;;2.20;;
15624;SDS011;7912;51.376;6.126;2023-06-14T15:17:31;6.50;;;2.60;;
15624;SDS011;7912;51.376;6.126;2023-06-14T15:19:58;3.10;;;2.23;;
15624;SDS011;7912;51.376;6.126;2023-06-14T15:22:26;2.27;;;2.07;;
15624;SDS011;7912;51.376;6.126;2023-06-14T15:24:54;3.37;;;2.20;;
15624;SDS011;7912;51.376;6.126;2023-06-14T15:27:21;3.23;;;2.23;;
15624;SDS011;7912;51.376;6.126;2023-06-14T15:29:48;2.40;;;2.20;;
15624;SDS011;7912;51.376;6.126;2023-06-14T15:32:17;3.93;;;2.30;;
15624;SDS011;7912;51.376;6.126;2023-06-14T15:34:45;2.77;;;2.30;;
15624;SDS011;7912;51.376;6.126;2023-06-14T15:37:13;4.17;;;2.80;;
15624;SDS011;7912;51.376;6.126;2023-06-14T15:39:41;2.53;;;2.33;;
15624;SDS011;7912;51.376;6.126;2023-06-14T15:42:08;2.67;;;2.40;;
15624;SDS011;7912;51.376;6.126;2023-06-14T15:44:36;3.07;;;2.30;;
15624;SDS011;7912;51.376;6.126;2023-06-14T15:47:04;3.53;;;2.50;;
15624;SDS011;7912;51.376;6.126;2023-06-14T15:49:31;3.70;;;2.40;;
15624;SDS011;7912;51.376;6.126;2023-06-14T15:51:59;3.10;;;2.37;;
15624;SDS011;7912;51.376;6.126;2023-06-14T15:54:28;3.67;;;2.60;;
15624;SDS011;7912;51.376;6.126;2023-06-14T15:56:55;3.90;;;2.40;;
15624;SDS011;7912;51.376;6.126;2023-06-14T15:59:23;4.23;;;2.87;;
15624;SDS011;7912;51.376;6.126;2023-06-14T16:09:06;2.93;;;2.20;;
15624;SDS011;7912;51.376;6.126;2023-06-14T16:11:34;3.13;;;2.20;;
15624;SDS011;7912;51.376;6.126;2023-06-14T16:14:02;3.63;;;2.57;;
15624;SDS011;7912;51.376;6.126;2023-06-14T16:16:29;2.63;;;2.43;;
15624;SDS011;7912;51.376;6.126;2023-06-14T16:18:57;3.13;;;2.57;;
15624;SDS011;7912;51.376;6.126;2023-06-14T16:21:24;2.97;;;2.77;;
15624;SDS011;7912;51.376;6.126;2023-06-14T16:23:52;2.47;;;2.27;;
15624;SDS011;7912;51.376;6.126;2023-06-14T16:26:20;4.53;;;2.40;;